Lleida-Alguaire Airport

LEDA · Lleida, Catalonia, Spain

METAR history LEDA · Lleida-Alguaire Airport

Below you see METARs of the last few days. Select a year to browse through older METARs, from the year 2007 onwards.

December 6, 2022

Time Code Weather Temp. Visibility Ceiling Wind METAR/SPECI
12:30
V
12 °C 10 km+ - 210° 210° 1 kt METAR LEDA 061130Z 21001KT CAVOK 12/07 Q1016
12:00
V
11 °C 10 km+ - 120° 120° 3 kt METAR LEDA 061100Z 12003KT 080V190 CAVOK 11/08 Q1016
11:30
V
10 °C 10 km+ - 060° 060° 1 kt METAR LEDA 061030Z 06001KT CAVOK 10/07 Q1016
11:00
V
9 °C 10 km+ - Var 000° 0 kt METAR LEDA 061000Z 00000KT CAVOK 09/07 Q1016
10:30
V
8 °C 9 km - Var 000° 0 kt METAR LEDA 060930Z 00000KT 9000 NSC 08/07 Q1016
10:00
V
8 °C 8 km - Var 000° 0 kt METAR LEDA 060900Z 00000KT 8000 NSC 08/07 Q1016
09:30
M
7 °C 7 km - 270° 270° 3 kt METAR LEDA 060830Z 27003KT 230V290 7000 FEW023 07/06 Q1016
09:00
M
7 °C 7 km - 300° 300° 3 kt METAR LEDA 060800Z 30003KT 7000 NSC 07/06 Q1016
08:30
M
6 °C 5 km - 320° 320° 4 kt METAR LEDA 060730Z 32004KT 290V350 5000 BR NSC 06/06 Q1015
08:00
M
6 °C 7 km - 310° 310° 4 kt METAR LEDA 060700Z 31004KT 7000 NSC 06/06 Q1015
07:30
M
6 °C 6 km - 330° 330° 2 kt METAR LEDA 060630Z AUTO 33002KT 6000 NSC 06/06 Q1015
07:00
M
6 °C 6 km - 220° 220° 3 kt METAR LEDA 060600Z AUTO 22003KT 6000 NSC 06/06 Q1015
06:30
M
6 °C 7 km - 190° 190° 2 kt METAR LEDA 060530Z AUTO 19002KT 7000 NSC 06/06 Q1015
06:00
M
6 °C 7 km - 190° 190° 3 kt METAR LEDA 060500Z AUTO 19003KT 7000 NSC 06/06 Q1015
05:30
M
6 °C 5 km - 050° 050° 3 kt METAR LEDA 060430Z AUTO 05003KT 5000 BR NSC 06/05 Q1014
05:00
I
6 °C 4.8 km - 030° 030° 3 kt METAR LEDA 060400Z AUTO 03003KT 4800 BR NSC 06/05 Q1014
04:30
I
6 °C 4.1 km - 040° 040° 3 kt METAR LEDA 060330Z AUTO 04003KT 4100 BR NSC 06/05 Q1015
04:00
I
6 °C 4.6 km - 040° 040° 3 kt METAR LEDA 060300Z AUTO 04003KT 4600 BR NSC 06/06 Q1015
03:30
I
7 °C 4.4 km - 020° 020° 5 kt METAR LEDA 060230Z AUTO 02005KT 4400 BR NSC 07/06 Q1015
03:00
V
8 °C 10 km+ - Var Var 1 kt METAR LEDA 060200Z AUTO VRB01KT CAVOK 08/06 Q1016
02:30
V
8 °C 10 km+ - Var 000° 0 kt METAR LEDA 060130Z AUTO 00000KT CAVOK 08/06 Q1015
02:00
V
9 °C 10 km+ - Var 000° 0 kt METAR LEDA 060100Z AUTO 00000KT CAVOK 09/06 Q1015
01:30
V
9 °C 10 km+ - Var Var 1 kt METAR LEDA 060030Z AUTO VRB01KT CAVOK 09/06 Q1016
01:00
V
9 °C 10 km+ - Var Var 1 kt METAR LEDA 060000Z AUTO VRB01KT 9999 FEW032 SCT055 09/06 Q1016
00:30
V
9 °C 10 km+ 3,000 ft 310° 310° 1 kt METAR LEDA 052330Z AUTO 31001KT 9999 OVC030 09/06 Q1016
00:00
V
8 °C 10 km+ 3,000 ft 310° 310° 3 kt METAR LEDA 052300Z AUTO 31003KT 9999 OVC030 08/06 Q1016

December 5, 2022

Time Code Weather Temp. Visibility Ceiling Wind METAR/SPECI
23:30
V
8 °C 10 km+ 3,100 ft 330° 330° 3 kt METAR LEDA 052230Z AUTO 33003KT 9999 BKN031 BKN050 08/06 Q1016
23:00
V
7 °C 10 km+ 3,200 ft Var Var 1 kt METAR LEDA 052200Z AUTO VRB01KT 9999 BKN032 OVC045 07/06 Q1016
22:30
V
7 °C 10 km+ 3,000 ft 030° 030° 1 kt METAR LEDA 052130Z AUTO 03001KT 9999 BKN030 OVC041 07/06 Q1016
22:00
M
7 °C 10 km+ 2,800 ft 180° 180° 2 kt METAR LEDA 052100Z AUTO 18002KT 9999 BKN028 BKN043 07/06 Q1016
21:30
V
7 °C 10 km+ - 240° 240° 6 kt METAR LEDA 052030Z AUTO 24006KT 9999 SCT043 07/05 Q1016
21:00
V
7 °C 10 km+ - 090° 090° 3 kt METAR LEDA 052000Z AUTO 09003KT CAVOK 07/06 Q1016
20:30
V
7 °C 8 km 4,400 ft 040° 040° 2 kt METAR LEDA 051930Z AUTO 04002KT 8000 BKN044 07/06 Q1016
20:00
V
8 °C 10 km+ - Var Var 1 kt METAR LEDA 051900Z AUTO VRB01KT 9999 FEW046 08/07 Q1016
19:30
V
8 °C 10 km+ - 010° 010° 1 kt METAR LEDA 051830Z AUTO 01001KT 9999 FEW031 08/06 Q1016
19:00
M
8 °C 8 km 2,900 ft 360° 360° 3 kt METAR LEDA 051800Z AUTO 36003KT 8000 OVC029 08/07 Q1016
18:30
V
8 °C 10 km+ 3,000 ft 350° 350° 2 kt METAR LEDA 051730Z AUTO 35002KT 9999 BKN030 OVC057 08/07 Q1016
18:00
V
8 °C 10 km+ 5,500 ft 230° 230° 2 kt METAR LEDA 051700Z 23002KT 9999 FEW035 OVC055 08/06 Q1016
17:30
V
9 °C 10 km+ 4,700 ft 200° 200° 4 kt METAR LEDA 051630Z 20004KT 9999 SCT032 BKN047 OVC056 09/07 Q1016
17:00
V
9 °C 10 km+ 4,500 ft Var Var 1 kt METAR LEDA 051600Z VRB01KT 9999 FEW035 BKN045 09/07 Q1016
16:30
V
9 °C 10 km+ 5,000 ft Var 000° 0 kt METAR LEDA 051530Z 00000KT 9999 FEW035 BKN050 09/06 Q1016
16:00
V
8 °C 10 km+ 4,000 ft 310° 310° 4 kt METAR LEDA 051500Z 31004KT 280V340 9999 FEW028 BKN040 OVC046 08/06 Q1016
15:30
M
9 °C 10 km+ 2,800 ft 280° 280° 5 kt METAR LEDA 051430Z 28005KT 9999 OVC028 09/06 Q1016
15:00
V
11 °C 10 km+ 4,800 ft Var 000° 0 kt METAR LEDA 051400Z 00000KT 9999 SCT030 BKN048 11/05 Q1016
14:30
V
10 °C 10 km+ 5,000 ft Var Var 1 kt METAR LEDA 051330Z VRB01KT 9999 FEW042 BKN050 10/05 Q1016
14:00
V
10 °C 10 km+ 5,000 ft 120° 120° 3 kt METAR LEDA 051300Z 12003KT 080V160 9999 BKN050 10/05 Q1016
13:30
V
8 °C 10 km+ 4,900 ft Var Var 2 kt METAR LEDA 051230Z VRB02KT 9999 OVC049 08/07 Q1016
13:00
V
7 °C 10 km+ 5,000 ft 320° 320° 3 kt METAR LEDA 051200Z 32003KT 280V020 9999 FEW038 BKN050 07/06 Q1017
12:30
V
8 °C 10 km+ - 350° 350° 4 kt METAR LEDA 051130Z 35004KT 320V030 9999 SCT048 08/05 Q1018
12:00
V
7 °C 10 km+ - 020° 020° 3 kt METAR LEDA 051100Z 02003KT 320V100 9999 FEW048 07/06 Q1018
11:30
V
6 °C 10 km+ - 060° 060° 3 kt METAR LEDA 051030Z 06003KT 010V110 9999 FEW060 06/06 Q1018
11:00
V
4 °C 10 km+ - 100° 100° 1 kt METAR LEDA 051000Z 10001KT 9999 VCFG FEW002 SCT060 04/04 Q1018
10:30
V
4 °C 10 km+ - Var 000° 0 kt METAR LEDA 050930Z 00000KT 9999 VCFG FEW001 SCT063 04/04 Q1018
10:15
V
3 °C 9 km - Var Var 2 kt METAR LEDA 050915Z VRB02KT 9000 4000SW VCFG SCT001 03/03 Q1018
10:00
L
2 °C 2.5 km 100 ft Var Var 2 kt METAR LEDA 050900Z VRB02KT 2500 R31/1200U BR BCFG BKN001 02/02 Q1018
09:30
L
2 °C 250 m 100 ft Var Var 2 kt METAR LEDA 050830Z VRB02KT 0250 R31/0450N FG BKN001 02/02 Q1018
09:00
L
2 °C 50 m 100 ft Var Var 1 kt METAR LEDA 050800Z VRB01KT 0050 R31/0200N FG VV001 02/02 Q1018
08:30
L
1 °C 50 m 100 ft Var Var 2 kt METAR LEDA 050730Z VRB02KT 0050 R31/0250N FG VV001 01/01 Q1018
08:00
L
2 °C 100 m 100 ft Var 000° 0 kt METAR LEDA 050700Z 00000KT 0100 R31/0350N FG VV001 02/02 Q1018
07:30
L
2 °C 100 m 100 ft Var Var 2 kt METAR LEDA 050630Z AUTO VRB02KT 0100 R31/0375N FG VV001 02/02 Q1017
07:00
L
2 °C 250 m 100 ft 040° 040° 3 kt METAR LEDA 050600Z AUTO 04003KT 0250 R31/0700N FG BKN001 02/02 Q1017
06:30
L
3 °C 500 m 100 ft 050° 050° 3 kt METAR LEDA 050530Z AUTO 05003KT 010V120 0500 R31/1200U FG BKN001 03/03 Q1017
06:00
L
3 °C 600 m 100 ft Var Var 1 kt METAR LEDA 050500Z AUTO VRB01KT 0600 R31/1800D FG BKN001 03/03 Q1017
05:30
L
3 °C 1.3 km 100 ft Var Var 2 kt METAR LEDA 050430Z AUTO VRB02KT 1300 R31/P2000 BR BKN001 03/03 Q1017
05:00
L
3 °C 3.1 km 200 ft Var Var 2 kt METAR LEDA 050400Z AUTO VRB02KT 3100 BR BKN002 03/03 Q1016
04:30
L
3 °C 2.4 km 200 ft 060° 060° 3 kt METAR LEDA 050330Z AUTO 06003KT 030V110 2400 BR OVC002 03/03 Q1016
04:00
L
3 °C 3.1 km 300 ft 070° 070° 4 kt METAR LEDA 050300Z AUTO 07004KT 030V100 3100 BR OVC003 03/03 Q1016
03:30
L
3 °C 3.6 km 300 ft 080° 080° 5 kt METAR LEDA 050230Z AUTO 08005KT 3600 BR OVC003 03/03 Q1016
03:00
L
3 °C 2.6 km 200 ft 070° 070° 5 kt METAR LEDA 050200Z AUTO 07005KT 030V100 2600 BR OVC002 03/03 Q1016
02:30
L
3 °C 4.2 km 300 ft 030° 030° 4 kt METAR LEDA 050130Z AUTO 03004KT 340V060 4200 BR OVC003 03/03 Q1016
02:00
L
3 °C 4.3 km 300 ft 040° 040° 4 kt METAR LEDA 050100Z AUTO 04004KT 330V100 4300 BR OVC003 03/03 Q1016
01:30
L
4 °C 4.6 km 400 ft 040° 040° 4 kt METAR LEDA 050030Z AUTO 04004KT 350V070 4600 BR OVC004 04/04 Q1016
01:00
L
4 °C 4.3 km 400 ft 030° 030° 3 kt METAR LEDA 050000Z AUTO 03003KT 350V070 4300 BR OVC004 04/04 Q1016
00:30
L
4 °C 4.3 km 400 ft 050° 050° 3 kt METAR LEDA 042330Z AUTO 05003KT 010V120 4300 BR OVC004 04/04 Q1016
00:00
L
4 °C 4.2 km 400 ft 070° 070° 3 kt METAR LEDA 042300Z AUTO 07003KT 360V110 4200 BR OVC004 04/04 Q1016

December 4, 2022

Time Code Weather Temp. Visibility Ceiling Wind METAR/SPECI
23:30
I
4 °C 5 km 500 ft 010° 010° 3 kt METAR LEDA 042230Z AUTO 01003KT 330V060 5000 BR OVC005 04/04 Q1016
23:00
I
4 °C 6 km 500 ft Var Var 2 kt METAR LEDA 042200Z AUTO VRB02KT 6000 OVC005 04/04 Q1016
22:30
I
4 °C 2.2 km 500 ft Var 000° 0 kt METAR LEDA 042130Z AUTO 00000KT 2200 BR OVC005 04/04 Q1015
22:00
L
3 °C 2.4 km 400 ft Var 000° 0 kt METAR LEDA 042100Z AUTO 00000KT 2400 BR OVC004 03/03 Q1015
21:30
L
3 °C 1.9 km 400 ft 110° 110° 3 kt METAR LEDA 042030Z AUTO 11003KT 080V140 1900 BR BKN004 03/03 Q1015
21:00
L
2 °C 250 m - Var Var 2 kt METAR LEDA 042000Z AUTO VRB02KT 0250 R31/0800U FG SCT004 02/02 Q1014
20:30
L
1 °C 100 m - Var Var 1 kt METAR LEDA 041930Z AUTO VRB01KT 0100 R31/0600U FG FEW002 01/01 Q1014
20:00
L
2 °C 200 m 100 ft 150° 150° 3 kt METAR LEDA 041900Z AUTO 15003KT 0200 R31/0250D FG VV001 02/02 Q1014
19:30
I
3 °C 2.7 km - 140° 140° 3 kt METAR LEDA 041830Z AUTO 14003KT 120V180 2700 BR NSC 03/03 Q1014
19:00
I
3 °C 3.1 km - Var Var 2 kt METAR LEDA 041800Z AUTO VRB02KT 3100 BR NCD 03/03 Q1013
18:30
I
3 °C 4.2 km - 100° 100° 2 kt METAR LEDA 041730Z AUTO 10002KT 4200 BR NCD 03/03 Q1013
18:00
I
4 °C 4.8 km - Var Var 1 kt METAR LEDA 041700Z VRB01KT 4800 BR NSC 04/04 Q1013
17:30
M
4 °C 7 km - 160° 160° 3 kt METAR LEDA 041630Z 16003KT 080V220 7000 FEW005 04/04 Q1012
17:00
V
5 °C 8 km - 170° 170° 4 kt METAR LEDA 041600Z 17004KT 8000 SCT006 05/05 Q1012
16:30
V
5 °C 8 km - 170° 170° 3 kt METAR LEDA 041530Z 17003KT 140V230 8000 SCT007 05/05 Q1012
16:00
I
6 °C 7 km 700 ft 170° 170° 3 kt METAR LEDA 041500Z 17003KT 120V230 7000 BKN007 06/05 Q1012
15:30
I
5 °C 7 km 500 ft Var Var 2 kt METAR LEDA 041430Z VRB02KT 7000 BKN005 05/05 Q1011
15:00
I
5 °C 7 km 500 ft 210° 210° 5 kt METAR LEDA 041400Z 21005KT 180V240 7000 BKN005 05/05 Q1011
14:30
I
5 °C 7 km 500 ft 230° 230° 5 kt METAR LEDA 041330Z 23005KT 190V290 7000 BKN005 05/05 Q1011
14:00
L
4 °C 6 km 300 ft 220° 220° 3 kt METAR LEDA 041300Z 22003KT 140V290 6000 OVC003 04/04 Q1011
13:30
L
4 °C 3 km 200 ft 230° 230° 4 kt METAR LEDA 041230Z 23004KT 170V280 3000 BR OVC002 04/04 Q1011
13:00
L
4 °C 300 m 100 ft 230° 230° 3 kt METAR LEDA 041200Z 23003KT 160V320 0300 R31/0375D FG OVC001 04/04 Q1011
12:30
L
4 °C 500 m 100 ft 210° 210° 4 kt METAR LEDA 041130Z 21004KT 160V250 0500 R31/0750U FG BKN001 04/04 Q1011
12:00
L
4 °C 150 m 100 ft 240° 240° 3 kt METAR LEDA 041100Z 24003KT 190V310 0150 R31/0275N FG BKN001 04/04 Q1011
11:30
L
4 °C 250 m 100 ft 250° 250° 4 kt METAR LEDA 041030Z 25004KT 200V300 0250 R31/0500U FG BKN001 04/04 Q1011
11:00
L
4 °C 150 m 100 ft 270° 270° 4 kt METAR LEDA 041000Z 27004KT 240V320 0150 R31/0250N FG VV001 04/04 Q1011

We and third parties follow your internet behavior on our website with cookies. If you continue, we assume you agree with our cookie policy.